createdAt,value
2022-10-11T00:03:33.993Z,24.38
2022-10-11T00:08:37.774Z,20.52
2022-10-11T00:13:40.213Z,23.30
2022-10-11T00:18:42.673Z,20.02
2022-10-11T00:23:46.401Z,17.52
2022-10-11T00:33:51.256Z,26.45
2022-10-11T00:38:55.221Z,15.15
2022-10-11T00:44:13.723Z,18.15
2022-10-11T00:49:19.132Z,17.15
2022-10-11T00:54:24.876Z,17.25
2022-10-11T00:59:28.714Z,19.90
2022-10-11T01:04:31.098Z,17.05
2022-10-11T01:09:34.798Z,17.80
2022-10-11T01:19:55.945Z,16.73
2022-10-11T01:25:13.862Z,16.90
2022-10-11T01:30:20.426Z,17.42
2022-10-11T01:35:26.293Z,16.85
2022-10-11T01:40:30.474Z,15.00
2022-10-11T01:45:34.668Z,20.73
2022-10-11T01:50:39.886Z,21.55
2022-10-11T01:55:48.327Z,15.30
2022-10-11T02:00:53.792Z,19.63
2022-10-11T02:05:58.310Z,23.88
2022-10-11T02:11:03.290Z,26.83
2022-10-11T02:16:10.603Z,21.25
2022-10-11T02:21:14.989Z,31.60
2022-10-11T02:26:20.203Z,23.83
2022-10-11T02:31:25.095Z,27.15
2022-10-11T02:36:30.923Z,27.92
2022-10-11T02:41:35.118Z,21.92
2022-10-11T02:46:39.668Z,25.48
2022-10-11T02:51:42.054Z,26.67
2022-10-11T02:56:44.462Z,25.95
2022-10-11T03:01:48.217Z,23.30
2022-10-11T03:06:50.605Z,24.27
2022-10-11T03:11:52.910Z,24.23
2022-10-11T03:17:00.730Z,19.30
2022-10-11T03:22:14.862Z,17.77
2022-10-11T03:27:17.274Z,17.52
2022-10-11T03:32:20.968Z,25.48
2022-10-11T03:42:25.697Z,19.83
2022-10-11T03:47:29.424Z,16.63
2022-10-11T03:57:34.490Z,17.40
2022-10-11T04:02:39.345Z,21.98
2022-10-11T04:07:41.846Z,19.35
2022-10-11T04:12:44.215Z,22.35
2022-10-11T04:17:47.962Z,15.35
2022-10-11T04:22:50.394Z,17.67
2022-10-11T04:27:52.988Z,16.05
2022-10-11T04:32:56.844Z,16.85
2022-10-11T04:37:59.220Z,13.90
2022-10-11T04:43:01.950Z,12.55
2022-10-11T04:48:05.861Z,20.50
2022-10-11T04:53:08.245Z,20.17
2022-10-11T04:58:10.653Z,17.42
2022-10-11T05:03:14.388Z,10.15
2022-10-11T05:08:17.889Z,19.17
2022-10-11T05:13:22.264Z,17.63
2022-10-11T05:18:31.277Z,17.60
2022-10-11T05:23:34.379Z,15.20
2022-10-11T05:28:36.820Z,12.70
2022-10-11T05:33:40.731Z,15.43
2022-10-11T05:38:43.195Z,18.65
2022-10-11T05:43:46.102Z,23.88
2022-10-11T05:48:49.814Z,22.43
2022-10-11T05:58:58.719Z,21.63
2022-10-11T06:04:05.646Z,24.20
2022-10-11T06:09:08.104Z,23.70
2022-10-11T06:14:11.522Z,19.52
2022-10-11T06:19:16.357Z,18.27
2022-10-11T06:24:19.004Z,17.25
2022-10-11T06:29:21.334Z,16.25
2022-10-11T06:34:25.364Z,14.18
2022-10-11T06:39:27.822Z,18.05
2022-10-11T06:44:30.319Z,20.38
2022-10-11T06:49:34.249Z,26.67
2022-10-11T06:54:39.160Z,27.95
2022-10-11T06:59:44.914Z,25.90
2022-10-11T07:04:48.640Z,21.60
2022-10-11T07:09:51.045Z,24.25
2022-10-11T07:14:53.550Z,25.67
2022-10-11T07:19:57.323Z,20.65
2022-10-11T07:25:00.033Z,18.50
2022-10-11T07:30:02.504Z,19.00
2022-10-11T07:35:06.763Z,13.40
2022-10-11T07:40:11.156Z,10.82
2022-10-11T07:45:13.785Z,13.85
2022-10-11T07:50:17.846Z,9.13
2022-10-11T07:55:20.295Z,9.95
2022-10-11T08:00:23.022Z,9.57
2022-10-11T08:05:29.325Z,11.53
2022-10-11T08:10:31.932Z,5.68
2022-10-11T08:15:34.368Z,11.33
2022-10-11T08:20:40.934Z,5.80
2022-10-11T08:25:44.842Z,10.65
2022-10-11T08:30:51.906Z,6.95
2022-10-11T08:35:57.358Z,6.60
2022-10-11T08:41:01.844Z,8.25
2022-10-11T08:46:22.217Z,8.20
2022-10-11T08:51:28.323Z,7.85
2022-10-11T08:56:31.712Z,6.20
2022-10-11T09:06:43.970Z,5.82
2022-10-11T09:11:53.473Z,10.23
2022-10-11T09:17:01.813Z,6.43
2022-10-11T09:22:08.582Z,10.65
2022-10-11T09:27:19.210Z,12.43
2022-10-11T09:32:21.919Z,9.32
2022-10-11T09:37:28.001Z,6.68
2022-10-11T09:42:30.522Z,6.90
2022-10-11T09:47:33.731Z,7.67
2022-10-11T09:57:40.853Z,9.55
2022-10-11T10:02:43.821Z,4.88
2022-10-11T10:12:55.686Z,6.63
2022-10-11T10:17:58.825Z,8.82
2022-10-11T10:23:03.442Z,10.65
2022-10-11T10:28:20.157Z,9.20
2022-10-11T10:33:23.772Z,5.65
2022-10-11T10:38:28.136Z,4.65
2022-10-11T10:43:34.455Z,8.63
2022-10-11T10:49:18.765Z,7.10
2022-10-11T10:54:09.336Z,8.10
2022-10-11T10:59:19.243Z,10.25
2022-10-11T11:04:27.182Z,9.88
2022-10-11T11:09:33.307Z,5.78
2022-10-11T11:14:44.095Z,5.38
2022-10-11T11:19:53.361Z,7.63
2022-10-11T11:25:01.045Z,8.77
2022-10-11T11:30:06.844Z,7.72
2022-10-11T11:35:11.389Z,9.05
2022-10-11T11:40:16.495Z,7.18
2022-10-11T11:45:23.058Z,8.93
2022-10-11T11:50:28.602Z,5.45
2022-10-11T11:55:35.972Z,7.57
2022-10-11T12:00:44.520Z,7.00
2022-10-11T12:06:03.260Z,5.25
2022-10-11T12:11:08.939Z,4.70
2022-10-11T12:16:13.945Z,6.15
2022-10-11T12:21:24.460Z,8.32
2022-10-11T12:26:37.618Z,5.07
2022-10-11T12:31:46.015Z,5.32
2022-10-11T12:36:53.579Z,6.20
2022-10-11T12:42:20.795Z,12.18
2022-10-11T12:47:34.036Z,4.93
2022-10-11T12:58:05.138Z,9.43
2022-10-11T13:03:31.854Z,3.35
2022-10-11T13:08:39.597Z,5.75
2022-10-11T13:13:47.103Z,9.52
2022-10-11T13:18:56.780Z,8.38
2022-10-11T13:24:02.377Z,9.30
2022-10-11T13:29:06.793Z,6.20
2022-10-11T13:34:16.727Z,5.88
2022-10-11T13:39:31.263Z,5.63
2022-10-11T13:44:37.598Z,3.03
2022-10-11T13:49:45.139Z,6.75
2022-10-11T13:54:58.634Z,4.38
2022-10-11T14:05:06.493Z,4.55
2022-10-11T14:10:19.390Z,7.97
2022-10-11T14:15:25.155Z,5.10
2022-10-11T14:20:35.663Z,8.57
2022-10-11T14:25:38.251Z,6.50
2022-10-11T14:30:41.820Z,4.82
2022-10-11T14:35:46.582Z,9.30
2022-10-11T14:40:49.391Z,6.28
2022-10-11T14:45:52.931Z,6.32
2022-10-11T14:50:59.285Z,8.70
2022-10-11T14:56:01.732Z,6.55
2022-10-11T15:01:04.228Z,7.27
2022-10-11T15:06:14.105Z,9.00
2022-10-11T15:11:17.227Z,7.13
2022-10-11T15:16:22.230Z,9.65
2022-10-11T15:21:27.015Z,8.55
2022-10-11T15:26:30.363Z,10.60
2022-10-11T15:31:32.853Z,10.40
2022-10-11T15:36:38.719Z,10.00
2022-10-11T15:41:41.202Z,7.68
2022-10-11T15:46:43.811Z,8.90
2022-10-11T15:52:06.902Z,8.50
2022-10-11T15:57:10.652Z,8.02
2022-10-11T16:02:14.565Z,12.60
2022-10-11T16:07:17.118Z,12.05
2022-10-11T16:12:20.906Z,7.33
2022-10-11T16:17:23.491Z,7.00
2022-10-11T16:22:26.984Z,5.97
2022-10-11T16:32:34.499Z,11.13
2022-10-11T16:37:37.334Z,12.18
2022-10-11T16:42:39.924Z,9.88
2022-10-11T16:47:44.210Z,67.17
2022-10-11T16:52:46.634Z,23.40
2022-10-11T16:57:48.998Z,17.08
2022-10-11T17:02:52.736Z,14.55
2022-10-11T17:07:55.117Z,15.20
2022-10-11T17:12:57.566Z,12.13
2022-10-11T17:18:01.453Z,25.17
2022-10-11T17:23:03.958Z,13.00
2022-10-11T17:28:06.350Z,12.85
2022-10-11T17:33:10.183Z,11.50
2022-10-11T17:38:12.685Z,8.77
2022-10-11T17:43:16.021Z,8.63
2022-10-11T17:48:19.903Z,13.50
2022-10-11T17:53:22.493Z,10.55
2022-10-11T17:58:26.771Z,33.17
2022-10-11T18:03:31.799Z,68.70
2022-10-11T18:08:39.917Z,45.17
2022-10-11T18:13:46.177Z,41.72
2022-10-11T18:18:50.767Z,38.75
2022-10-11T18:23:53.406Z,37.40
2022-10-11T18:28:56.245Z,34.40
2022-10-11T18:34:00.167Z,20.08
2022-10-11T18:39:04.566Z,20.40
2022-10-11T18:44:08.550Z,27.00
2022-10-11T18:49:14.486Z,21.83
2022-10-11T18:54:20.282Z,19.00
2022-10-11T18:59:24.020Z,19.08
2022-10-11T19:04:28.582Z,13.02
2022-10-11T19:09:31.046Z,18.40
2022-10-11T19:14:33.587Z,21.48
2022-10-11T19:19:38.840Z,23.88
2022-10-11T19:24:44.277Z,24.65
2022-10-11T19:29:46.869Z,19.23
2022-10-11T19:34:51.303Z,21.45
2022-10-11T19:39:53.974Z,22.30
2022-10-11T19:44:56.863Z,19.37
2022-10-11T19:50:00.671Z,21.07
2022-10-11T19:55:03.269Z,101.03
2022-10-11T20:00:08.227Z,76.65
2022-10-11T20:05:13.198Z,31.35
2022-10-11T20:10:15.620Z,24.13
2022-10-11T20:15:18.062Z,17.15
2022-10-11T20:20:22.985Z,20.67
2022-10-11T20:25:25.552Z,21.38
2022-10-11T20:30:28.030Z,20.50
2022-10-11T20:35:31.848Z,22.95
2022-10-11T20:40:34.516Z,18.38
2022-10-11T20:45:36.918Z,16.08
2022-10-11T20:50:44.369Z,18.08
2022-10-11T20:55:46.934Z,17.60
2022-10-11T21:00:49.706Z,17.23
2022-10-11T21:06:00.124Z,15.17
2022-10-11T21:11:02.582Z,16.88
2022-10-11T21:16:05.840Z,13.55
2022-10-11T21:21:11.004Z,12.73
2022-10-11T21:26:14.643Z,16.85
2022-10-11T21:36:21.811Z,22.05
2022-10-11T21:41:25.665Z,19.65
2022-10-11T21:51:52.962Z,19.60
2022-10-11T21:56:55.489Z,19.83
2022-10-11T22:02:01.696Z,15.70
2022-10-11T22:07:06.028Z,15.25
2022-10-11T22:12:08.617Z,17.15
2022-10-11T22:17:11.016Z,13.23
2022-10-11T22:22:14.818Z,18.77
2022-10-11T22:27:17.217Z,10.15
2022-10-11T22:32:19.697Z,11.00
2022-10-11T22:37:23.611Z,9.95
2022-10-11T22:42:27.700Z,12.20
2022-10-11T22:47:30.291Z,14.93
2022-10-11T22:52:34.150Z,18.15
2022-10-11T22:57:36.946Z,20.05
2022-10-11T23:02:39.441Z,19.23
2022-10-11T23:07:43.438Z,11.48
2022-10-11T23:12:46.206Z,9.45
2022-10-11T23:17:48.784Z,28.03
2022-10-11T23:22:52.772Z,23.48
2022-10-11T23:27:55.281Z,18.52
2022-10-11T23:32:57.885Z,22.02
2022-10-11T23:38:01.735Z,23.95
2022-10-11T23:43:04.160Z,25.05
2022-10-11T23:48:06.669Z,29.48
2022-10-11T23:53:13.823Z,23.27
2022-10-11T23:58:16.245Z,19.45
